sensor_id;sensor_type;location;lat;lon;timestamp;temperature;humidity
17370;DHT22;8802;52.402;4.920;2024-01-07T00:01:30;5.60;99.90
17370;DHT22;8802;52.402;4.920;2024-01-07T00:03:59;5.60;99.90
17370;DHT22;8802;52.402;4.920;2024-01-07T00:06:26;5.60;99.90
17370;DHT22;8802;52.402;4.920;2024-01-07T00:08:53;5.60;99.90
17370;DHT22;8802;52.402;4.920;2024-01-07T00:11:20;5.60;99.90
17370;DHT22;8802;52.402;4.920;2024-01-07T00:13:48;5.60;99.90
17370;DHT22;8802;52.402;4.920;2024-01-07T00:16:15;5.60;99.90
17370;DHT22;8802;52.402;4.920;2024-01-07T00:18:42;5.60;99.90
17370;DHT22;8802;52.402;4.920;2024-01-07T00:21:11;5.60;99.90
17370;DHT22;8802;52.402;4.920;2024-01-07T00:23:38;5.60;99.90
17370;DHT22;8802;52.402;4.920;2024-01-07T00:26:04;5.60;99.90
17370;DHT22;8802;52.402;4.920;2024-01-07T00:28:32;5.60;99.90
17370;DHT22;8802;52.402;4.920;2024-01-07T00:30:59;5.60;99.90
17370;DHT22;8802;52.402;4.920;2024-01-07T00:33:26;5.50;99.90
17370;DHT22;8802;52.402;4.920;2024-01-07T00:35:53;5.50;99.90
17370;DHT22;8802;52.402;4.920;2024-01-07T00:38:21;5.50;99.90
17370;DHT22;8802;52.402;4.920;2024-01-07T00:40:48;5.60;99.90
17370;DHT22;8802;52.402;4.920;2024-01-07T00:43:16;5.50;99.90
17370;DHT22;8802;52.402;4.920;2024-01-07T00:45:44;5.50;99.90
17370;DHT22;8802;52.402;4.920;2024-01-07T00:48:11;5.40;99.90
17370;DHT22;8802;52.402;4.920;2024-01-07T00:50:38;5.50;99.90
17370;DHT22;8802;52.402;4.920;2024-01-07T00:53:05;5.50;99.90
17370;DHT22;8802;52.402;4.920;2024-01-07T00:55:33;5.40;99.90
17370;DHT22;8802;52.402;4.920;2024-01-07T00:58:01;5.50;99.90
17370;DHT22;8802;52.402;4.920;2024-01-07T01:00:28;5.40;99.90
17370;DHT22;8802;52.402;4.920;2024-01-07T01:02:55;5.40;99.90
17370;DHT22;8802;52.402;4.920;2024-01-07T01:05:22;5.40;99.90
17370;DHT22;8802;52.402;4.920;2024-01-07T01:07:49;5.40;99.90
17370;DHT22;8802;52.402;4.920;2024-01-07T01:10:17;5.50;99.90
17370;DHT22;8802;52.402;4.920;2024-01-07T01:12:45;5.40;99.90
17370;DHT22;8802;52.402;4.920;2024-01-07T01:15:12;5.40;99.90
17370;DHT22;8802;52.402;4.920;2024-01-07T01:17:41;5.40;99.90
17370;DHT22;8802;52.402;4.920;2024-01-07T01:20:09;5.50;99.90
17370;DHT22;8802;52.402;4.920;2024-01-07T01:22:36;5.40;99.90
17370;DHT22;8802;52.402;4.920;2024-01-07T01:25:04;5.40;99.90
17370;DHT22;8802;52.402;4.920;2024-01-07T01:27:31;5.40;99.90
17370;DHT22;8802;52.402;4.920;2024-01-07T01:29:59;5.40;99.90
17370;DHT22;8802;52.402;4.920;2024-01-07T01:32:26;5.40;99.90
17370;DHT22;8802;52.402;4.920;2024-01-07T01:34:55;5.40;99.90
17370;DHT22;8802;52.402;4.920;2024-01-07T01:37:22;5.50;99.90
17370;DHT22;8802;52.402;4.920;2024-01-07T01:39:49;5.40;99.90
17370;DHT22;8802;52.402;4.920;2024-01-07T01:42:16;5.40;99.90
17370;DHT22;8802;52.402;4.920;2024-01-07T01:44:43;5.40;99.90
17370;DHT22;8802;52.402;4.920;2024-01-07T01:47:11;5.40;99.90
17370;DHT22;8802;52.402;4.920;2024-01-07T01:49:39;5.40;99.90
17370;DHT22;8802;52.402;4.920;2024-01-07T01:52:06;5.40;99.90
17370;DHT22;8802;52.402;4.920;2024-01-07T01:54:35;5.40;99.90
17370;DHT22;8802;52.402;4.920;2024-01-07T01:57:02;5.40;99.90
17370;DHT22;8802;52.402;4.920;2024-01-07T01:59:29;5.30;99.90
17370;DHT22;8802;52.402;4.920;2024-01-07T02:01:56;5.30;99.90
17370;DHT22;8802;52.402;4.920;2024-01-07T02:04:25;5.30;99.90
17370;DHT22;8802;52.402;4.920;2024-01-07T02:06:52;5.30;99.90
17370;DHT22;8802;52.402;4.920;2024-01-07T02:09:19;5.30;99.90
17370;DHT22;8802;52.402;4.920;2024-01-07T02:12:00;5.30;99.90
17370;DHT22;8802;52.402;4.920;2024-01-07T02:14:27;5.30;99.90
17370;DHT22;8802;52.402;4.920;2024-01-07T02:16:55;5.30;99.90
17370;DHT22;8802;52.402;4.920;2024-01-07T02:19:24;5.30;99.90
17370;DHT22;8802;52.402;4.920;2024-01-07T02:21:52;5.30;99.90
17370;DHT22;8802;52.402;4.920;2024-01-07T02:24:21;5.30;99.90
17370;DHT22;8802;52.402;4.920;2024-01-07T02:26:48;5.30;99.90
17370;DHT22;8802;52.402;4.920;2024-01-07T02:29:15;5.30;99.90
17370;DHT22;8802;52.402;4.920;2024-01-07T02:31:42;5.30;99.90
17370;DHT22;8802;52.402;4.920;2024-01-07T02:34:10;5.30;99.90
17370;DHT22;8802;52.402;4.920;2024-01-07T02:36:36;5.30;99.90
17370;DHT22;8802;52.402;4.920;2024-01-07T02:39:04;5.30;99.90
17370;DHT22;8802;52.402;4.920;2024-01-07T02:41:34;5.30;99.90
17370;DHT22;8802;52.402;4.920;2024-01-07T02:44:00;5.30;99.90
17370;DHT22;8802;52.402;4.920;2024-01-07T02:46:27;5.30;99.90
17370;DHT22;8802;52.402;4.920;2024-01-07T02:48:55;5.30;99.90
17370;DHT22;8802;52.402;4.920;2024-01-07T02:51:24;5.30;99.90
17370;DHT22;8802;52.402;4.920;2024-01-07T02:53:51;5.30;99.90
17370;DHT22;8802;52.402;4.920;2024-01-07T02:56:18;5.30;99.90
17370;DHT22;8802;52.402;4.920;2024-01-07T02:58:46;5.30;99.90
17370;DHT22;8802;52.402;4.920;2024-01-07T03:01:13;5.30;99.90
17370;DHT22;8802;52.402;4.920;2024-01-07T03:03:40;5.30;99.90
17370;DHT22;8802;52.402;4.920;2024-01-07T03:06:07;5.30;99.90
17370;DHT22;8802;52.402;4.920;2024-01-07T03:08:34;5.30;99.90
17370;DHT22;8802;52.402;4.920;2024-01-07T03:11:04;5.30;99.90
17370;DHT22;8802;52.402;4.920;2024-01-07T03:13:32;5.30;99.90
17370;DHT22;8802;52.402;4.920;2024-01-07T03:16:02;5.30;99.90
17370;DHT22;8802;52.402;4.920;2024-01-07T03:18:29;5.30;99.90
17370;DHT22;8802;52.402;4.920;2024-01-07T03:20:57;5.30;99.90
17370;DHT22;8802;52.402;4.920;2024-01-07T03:23:24;5.30;99.90
17370;DHT22;8802;52.402;4.920;2024-01-07T03:25:51;5.20;99.90
17370;DHT22;8802;52.402;4.920;2024-01-07T03:28:18;5.30;99.90
17370;DHT22;8802;52.402;4.920;2024-01-07T03:30:45;5.30;99.90
17370;DHT22;8802;52.402;4.920;2024-01-07T03:33:13;5.30;99.90
17370;DHT22;8802;52.402;4.920;2024-01-07T03:35:40;5.40;99.90
17370;DHT22;8802;52.402;4.920;2024-01-07T03:38:07;5.30;99.90
17370;DHT22;8802;52.402;4.920;2024-01-07T03:40:33;5.30;99.90
17370;DHT22;8802;52.402;4.920;2024-01-07T03:43:00;5.30;99.90
17370;DHT22;8802;52.402;4.920;2024-01-07T03:45:27;5.30;99.90
17370;DHT22;8802;52.402;4.920;2024-01-07T03:47:54;5.30;99.90
17370;DHT22;8802;52.402;4.920;2024-01-07T03:50:23;5.30;99.90
17370;DHT22;8802;52.402;4.920;2024-01-07T03:52:50;5.30;99.90
17370;DHT22;8802;52.402;4.920;2024-01-07T03:55:17;5.30;99.90
17370;DHT22;8802;52.402;4.920;2024-01-07T03:57:44;5.30;99.90
17370;DHT22;8802;52.402;4.920;2024-01-07T04:00:11;5.30;99.90
17370;DHT22;8802;52.402;4.920;2024-01-07T04:02:38;5.20;99.90
17370;DHT22;8802;52.402;4.920;2024-01-07T04:05:05;5.30;99.90
17370;DHT22;8802;52.402;4.920;2024-01-07T04:07:34;5.20;99.90
17370;DHT22;8802;52.402;4.920;2024-01-07T04:10:01;5.20;99.90
17370;DHT22;8802;52.402;4.920;2024-01-07T04:12:28;5.30;99.90
17370;DHT22;8802;52.402;4.920;2024-01-07T04:14:55;5.30;99.90
17370;DHT22;8802;52.402;4.920;2024-01-07T04:17:23;5.30;99.90
17370;DHT22;8802;52.402;4.920;2024-01-07T04:19:51;5.20;99.90
17370;DHT22;8802;52.402;4.920;2024-01-07T04:22:18;5.20;99.90
17370;DHT22;8802;52.402;4.920;2024-01-07T04:24:47;5.20;99.90
17370;DHT22;8802;52.402;4.920;2024-01-07T04:27:13;5.20;99.90
17370;DHT22;8802;52.402;4.920;2024-01-07T04:29:40;5.20;99.90
17370;DHT22;8802;52.402;4.920;2024-01-07T04:32:07;5.20;99.90
17370;DHT22;8802;52.402;4.920;2024-01-07T04:34:34;5.20;99.90
17370;DHT22;8802;52.402;4.920;2024-01-07T04:37:01;5.20;99.90
17370;DHT22;8802;52.402;4.920;2024-01-07T04:39:28;5.20;99.90
17370;DHT22;8802;52.402;4.920;2024-01-07T04:41:56;5.20;99.90
17370;DHT22;8802;52.402;4.920;2024-01-07T04:44:23;5.20;99.90
17370;DHT22;8802;52.402;4.920;2024-01-07T04:46:50;5.20;99.90
17370;DHT22;8802;52.402;4.920;2024-01-07T04:49:17;5.20;99.90
17370;DHT22;8802;52.402;4.920;2024-01-07T04:51:44;5.30;99.90
17370;DHT22;8802;52.402;4.920;2024-01-07T04:54:12;5.20;99.90
17370;DHT22;8802;52.402;4.920;2024-01-07T04:56:39;5.20;99.90
17370;DHT22;8802;52.402;4.920;2024-01-07T04:59:08;5.20;99.90
17370;DHT22;8802;52.402;4.920;2024-01-07T05:01:36;5.20;99.90
17370;DHT22;8802;52.402;4.920;2024-01-07T05:04:03;5.20;99.90
17370;DHT22;8802;52.402;4.920;2024-01-07T05:06:30;5.20;99.90
17370;DHT22;8802;52.402;4.920;2024-01-07T05:08:57;5.30;99.90
17370;DHT22;8802;52.402;4.920;2024-01-07T05:11:25;5.20;99.90
17370;DHT22;8802;52.402;4.920;2024-01-07T05:13:52;5.20;99.90
17370;DHT22;8802;52.402;4.920;2024-01-07T05:16:21;5.20;99.90
17370;DHT22;8802;52.402;4.920;2024-01-07T05:18:49;5.20;99.90
17370;DHT22;8802;52.402;4.920;2024-01-07T05:21:18;5.20;99.90
17370;DHT22;8802;52.402;4.920;2024-01-07T05:23:44;5.20;99.90
17370;DHT22;8802;52.402;4.920;2024-01-07T05:26:11;5.30;99.90
17370;DHT22;8802;52.402;4.920;2024-01-07T05:28:38;5.20;99.90
17370;DHT22;8802;52.402;4.920;2024-01-07T05:31:05;5.20;99.90
17370;DHT22;8802;52.402;4.920;2024-01-07T05:33:42;5.20;99.90
17370;DHT22;8802;52.402;4.920;2024-01-07T05:36:10;5.20;99.90
17370;DHT22;8802;52.402;4.920;2024-01-07T05:38:37;5.20;99.90
17370;DHT22;8802;52.402;4.920;2024-01-07T05:41:04;5.20;99.90
17370;DHT22;8802;52.402;4.920;2024-01-07T05:43:31;5.10;99.90
17370;DHT22;8802;52.402;4.920;2024-01-07T05:45:58;5.10;99.90
17370;DHT22;8802;52.402;4.920;2024-01-07T05:48:26;5.10;99.90
17370;DHT22;8802;52.402;4.920;2024-01-07T05:50:55;5.20;99.90
17370;DHT22;8802;52.402;4.920;2024-01-07T05:53:23;5.10;99.90
17370;DHT22;8802;52.402;4.920;2024-01-07T05:55:50;5.20;99.90
17370;DHT22;8802;52.402;4.920;2024-01-07T05:58:17;5.20;99.90
17370;DHT22;8802;52.402;4.920;2024-01-07T06:00:43;5.10;99.90
17370;DHT22;8802;52.402;4.920;2024-01-07T06:03:10;5.20;99.90
17370;DHT22;8802;52.402;4.920;2024-01-07T06:05:38;5.20;99.90
17370;DHT22;8802;52.402;4.920;2024-01-07T06:08:06;5.10;99.90
17370;DHT22;8802;52.402;4.920;2024-01-07T06:10:34;5.20;99.90
17370;DHT22;8802;52.402;4.920;2024-01-07T06:13:07;5.10;99.90
17370;DHT22;8802;52.402;4.920;2024-01-07T06:15:36;5.10;99.90
17370;DHT22;8802;52.402;4.920;2024-01-07T06:18:05;5.10;99.90
17370;DHT22;8802;52.402;4.920;2024-01-07T06:20:33;5.10;99.90
17370;DHT22;8802;52.402;4.920;2024-01-07T06:23:01;5.10;99.90
17370;DHT22;8802;52.402;4.920;2024-01-07T06:25:32;5.10;99.90
17370;DHT22;8802;52.402;4.920;2024-01-07T06:28:03;5.10;99.90
17370;DHT22;8802;52.402;4.920;2024-01-07T06:30:31;5.10;99.90
17370;DHT22;8802;52.402;4.920;2024-01-07T06:32:59;5.20;99.90
17370;DHT22;8802;52.402;4.920;2024-01-07T06:35:27;5.10;99.90
17370;DHT22;8802;52.402;4.920;2024-01-07T06:37:55;5.10;99.90
17370;DHT22;8802;52.402;4.920;2024-01-07T06:40:23;5.10;99.90
17370;DHT22;8802;52.402;4.920;2024-01-07T06:42:53;5.10;99.90
17370;DHT22;8802;52.402;4.920;2024-01-07T06:45:22;5.10;99.90
17370;DHT22;8802;52.402;4.920;2024-01-07T06:47:50;5.00;99.90
17370;DHT22;8802;52.402;4.920;2024-01-07T06:50:17;5.00;99.90
17370;DHT22;8802;52.402;4.920;2024-01-07T06:52:45;5.00;99.90
17370;DHT22;8802;52.402;4.920;2024-01-07T06:55:12;5.00;99.90
17370;DHT22;8802;52.402;4.920;2024-01-07T06:57:39;5.00;99.90
17370;DHT22;8802;52.402;4.920;2024-01-07T07:00:08;5.00;99.90
17370;DHT22;8802;52.402;4.920;2024-01-07T07:02:35;5.00;99.90
17370;DHT22;8802;52.402;4.920;2024-01-07T07:05:02;5.00;99.90
17370;DHT22;8802;52.402;4.920;2024-01-07T07:07:29;4.90;99.90
17370;DHT22;8802;52.402;4.920;2024-01-07T07:09:58;4.90;99.90
17370;DHT22;8802;52.402;4.920;2024-01-07T07:12:26;4.90;99.90
17370;DHT22;8802;52.402;4.920;2024-01-07T07:14:55;4.90;99.90
17370;DHT22;8802;52.402;4.920;2024-01-07T07:17:26;4.90;99.90
17370;DHT22;8802;52.402;4.920;2024-01-07T07:19:53;4.90;99.90
17370;DHT22;8802;52.402;4.920;2024-01-07T07:22:21;4.90;99.90
17370;DHT22;8802;52.402;4.920;2024-01-07T07:24:50;4.90;99.90
17370;DHT22;8802;52.402;4.920;2024-01-07T07:27:18;4.90;99.90
17370;DHT22;8802;52.402;4.920;2024-01-07T07:29:46;4.90;99.90
17370;DHT22;8802;52.402;4.920;2024-01-07T07:32:14;4.90;99.90
17370;DHT22;8802;52.402;4.920;2024-01-07T07:34:43;4.90;99.90
17370;DHT22;8802;52.402;4.920;2024-01-07T07:37:12;4.90;99.90
17370;DHT22;8802;52.402;4.920;2024-01-07T07:39:39;4.90;99.90
17370;DHT22;8802;52.402;4.920;2024-01-07T07:42:07;4.80;99.90
17370;DHT22;8802;52.402;4.920;2024-01-07T07:44:36;4.80;99.90
17370;DHT22;8802;52.402;4.920;2024-01-07T07:47:04;4.80;99.90
17370;DHT22;8802;52.402;4.920;2024-01-07T07:49:34;4.80;99.90
17370;DHT22;8802;52.402;4.920;2024-01-07T07:52:04;4.80;99.90
17370;DHT22;8802;52.402;4.920;2024-01-07T07:54:31;4.70;99.90
17370;DHT22;8802;52.402;4.920;2024-01-07T07:57:01;4.80;99.90
17370;DHT22;8802;52.402;4.920;2024-01-07T07:59:29;4.80;99.90
17370;DHT22;8802;52.402;4.920;2024-01-07T08:01:56;4.80;99.90
17370;DHT22;8802;52.402;4.920;2024-01-07T08:04:24;4.70;99.90
17370;DHT22;8802;52.402;4.920;2024-01-07T08:06:52;4.80;99.90
17370;DHT22;8802;52.402;4.920;2024-01-07T08:09:20;4.70;99.90
17370;DHT22;8802;52.402;4.920;2024-01-07T08:11:47;4.70;99.90
17370;DHT22;8802;52.402;4.920;2024-01-07T08:14:14;4.70;99.90
17370;DHT22;8802;52.402;4.920;2024-01-07T08:16:41;4.70;99.90
17370;DHT22;8802;52.402;4.920;2024-01-07T08:19:07;4.70;99.90
17370;DHT22;8802;52.402;4.920;2024-01-07T08:21:35;4.70;99.90
17370;DHT22;8802;52.402;4.920;2024-01-07T08:24:02;4.70;99.90
17370;DHT22;8802;52.402;4.920;2024-01-07T08:26:32;4.70;99.90
17370;DHT22;8802;52.402;4.920;2024-01-07T08:29:01;4.70;99.90
17370;DHT22;8802;52.402;4.920;2024-01-07T08:31:29;4.70;99.90
17370;DHT22;8802;52.402;4.920;2024-01-07T08:33:56;4.80;99.90
17370;DHT22;8802;52.402;4.920;2024-01-07T08:36:24;4.70;99.90
17370;DHT22;8802;52.402;4.920;2024-01-07T08:38:51;4.70;99.90
17370;DHT22;8802;52.402;4.920;2024-01-07T08:41:18;4.70;99.90
17370;DHT22;8802;52.402;4.920;2024-01-07T08:43:48;4.90;99.90
17370;DHT22;8802;52.402;4.920;2024-01-07T08:46:16;4.70;99.90
17370;DHT22;8802;52.402;4.920;2024-01-07T08:48:44;4.70;99.90
17370;DHT22;8802;52.402;4.920;2024-01-07T08:51:11;4.70;99.90
17370;DHT22;8802;52.402;4.920;2024-01-07T08:53:39;4.80;99.90
17370;DHT22;8802;52.402;4.920;2024-01-07T08:56:06;4.70;99.90
17370;DHT22;8802;52.402;4.920;2024-01-07T08:58:34;4.70;99.90
17370;DHT22;8802;52.402;4.920;2024-01-07T09:01:02;4.70;99.90
17370;DHT22;8802;52.402;4.920;2024-01-07T09:03:30;4.70;99.90
17370;DHT22;8802;52.402;4.920;2024-01-07T09:05:57;4.90;99.90
17370;DHT22;8802;52.402;4.920;2024-01-07T09:08:23;4.70;99.90
17370;DHT22;8802;52.402;4.920;2024-01-07T09:10:50;4.70;99.90
17370;DHT22;8802;52.402;4.920;2024-01-07T09:13:17;4.70;99.90
17370;DHT22;8802;52.402;4.920;2024-01-07T09:15:44;4.80;99.90
17370;DHT22;8802;52.402;4.920;2024-01-07T09:18:12;4.70;99.90
17370;DHT22;8802;52.402;4.920;2024-01-07T09:20:40;4.70;99.90
17370;DHT22;8802;52.402;4.920;2024-01-07T09:23:07;4.70;99.90
17370;DHT22;8802;52.402;4.920;2024-01-07T09:25:33;4.70;99.90
17370;DHT22;8802;52.402;4.920;2024-01-07T09:28:01;4.70;99.90
17370;DHT22;8802;52.402;4.920;2024-01-07T09:30:31;4.70;99.90
17370;DHT22;8802;52.402;4.920;2024-01-07T09:33:00;4.70;99.90
17370;DHT22;8802;52.402;4.920;2024-01-07T09:35:31;4.70;99.90
17370;DHT22;8802;52.402;4.920;2024-01-07T09:38:00;4.60;99.90
17370;DHT22;8802;52.402;4.920;2024-01-07T09:40:29;4.70;99.90
17370;DHT22;8802;52.402;4.920;2024-01-07T09:42:57;4.70;99.90
17370;DHT22;8802;52.402;4.920;2024-01-07T09:45:25;4.80;99.90
17370;DHT22;8802;52.402;4.920;2024-01-07T09:47:52;4.70;99.90
17370;DHT22;8802;52.402;4.920;2024-01-07T09:50:19;4.70;99.90
17370;DHT22;8802;52.402;4.920;2024-01-07T09:52:48;4.70;99.90
17370;DHT22;8802;52.402;4.920;2024-01-07T09:55:22;4.70;99.90
17370;DHT22;8802;52.402;4.920;2024-01-07T09:57:50;4.70;99.90
17370;DHT22;8802;52.402;4.920;2024-01-07T10:00:18;4.70;99.90
17370;DHT22;8802;52.402;4.920;2024-01-07T10:02:44;4.70;99.90
17370;DHT22;8802;52.402;4.920;2024-01-07T10:05:11;4.70;99.90
17370;DHT22;8802;52.402;4.920;2024-01-07T10:07:38;4.70;99.90
17370;DHT22;8802;52.402;4.920;2024-01-07T10:10:14;4.80;99.90
17370;DHT22;8802;52.402;4.920;2024-01-07T10:12:44;4.70;99.90
17370;DHT22;8802;52.402;4.920;2024-01-07T10:15:11;4.80;99.90
17370;DHT22;8802;52.402;4.920;2024-01-07T10:17:39;4.70;99.90
17370;DHT22;8802;52.402;4.920;2024-01-07T10:20:08;4.70;99.90
17370;DHT22;8802;52.402;4.920;2024-01-07T10:22:36;4.80;99.90
17370;DHT22;8802;52.402;4.920;2024-01-07T10:25:05;4.80;99.90
17370;DHT22;8802;52.402;4.920;2024-01-07T10:27:35;4.80;99.90
17370;DHT22;8802;52.402;4.920;2024-01-07T10:30:04;4.80;99.90
17370;DHT22;8802;52.402;4.920;2024-01-07T10:32:32;4.80;99.90
17370;DHT22;8802;52.402;4.920;2024-01-07T10:35:02;5.00;99.90
17370;DHT22;8802;52.402;4.920;2024-01-07T10:37:30;4.80;99.90
17370;DHT22;8802;52.402;4.920;2024-01-07T10:39:58;4.80;99.90
17370;DHT22;8802;52.402;4.920;2024-01-07T10:42:29;4.80;99.90
17370;DHT22;8802;52.402;4.920;2024-01-07T10:44:59;4.80;99.90
17370;DHT22;8802;52.402;4.920;2024-01-07T10:47:29;4.80;99.90
17370;DHT22;8802;52.402;4.920;2024-01-07T10:49:57;4.80;99.90
17370;DHT22;8802;52.402;4.920;2024-01-07T10:52:27;4.80;99.90
17370;DHT22;8802;52.402;4.920;2024-01-07T10:54:56;4.80;99.90
17370;DHT22;8802;52.402;4.920;2024-01-07T10:57:34;4.90;99.90
17370;DHT22;8802;52.402;4.920;2024-01-07T11:00:03;4.90;99.90
17370;DHT22;8802;52.402;4.920;2024-01-07T11:02:34;4.90;99.90
17370;DHT22;8802;52.402;4.920;2024-01-07T11:05:11;5.00;99.90
17370;DHT22;8802;52.402;4.920;2024-01-07T11:07:45;5.00;99.90
17370;DHT22;8802;52.402;4.920;2024-01-07T11:10:16;5.00;99.90
17370;DHT22;8802;52.402;4.920;2024-01-07T11:12:53;5.10;99.90
17370;DHT22;8802;52.402;4.920;2024-01-07T11:18:28;5.20;99.90
17370;DHT22;8802;52.402;4.920;2024-01-07T11:20:59;5.10;99.90
17370;DHT22;8802;52.402;4.920;2024-01-07T11:23:29;5.20;99.90
17370;DHT22;8802;52.402;4.920;2024-01-07T11:25:57;5.20;99.90
17370;DHT22;8802;52.402;4.920;2024-01-07T11:28:42;5.20;99.90
17370;DHT22;8802;52.402;4.920;2024-01-07T11:31:09;5.20;99.90
17370;DHT22;8802;52.402;4.920;2024-01-07T11:33:38;5.20;99.90
17370;DHT22;8802;52.402;4.920;2024-01-07T11:36:05;5.20;99.90
17370;DHT22;8802;52.402;4.920;2024-01-07T11:38:34;5.20;99.90
17370;DHT22;8802;52.402;4.920;2024-01-07T11:41:03;5.20;99.90
17370;DHT22;8802;52.402;4.920;2024-01-07T11:43:31;5.20;99.90
17370;DHT22;8802;52.402;4.920;2024-01-07T11:45:59;5.20;99.90
17370;DHT22;8802;52.402;4.920;2024-01-07T11:48:26;5.30;99.90
17370;DHT22;8802;52.402;4.920;2024-01-07T11:50:55;5.20;99.90
17370;DHT22;8802;52.402;4.920;2024-01-07T11:53:22;5.30;99.90
17370;DHT22;8802;52.402;4.920;2024-01-07T11:55:49;5.30;99.90
17370;DHT22;8802;52.402;4.920;2024-01-07T11:58:16;5.30;99.90
17370;DHT22;8802;52.402;4.920;2024-01-07T12:00:43;5.30;99.90
17370;DHT22;8802;52.402;4.920;2024-01-07T12:03:09;5.30;99.90
17370;DHT22;8802;52.402;4.920;2024-01-07T12:05:37;5.30;99.90
17370;DHT22;8802;52.402;4.920;2024-01-07T12:08:06;5.30;99.90
17370;DHT22;8802;52.402;4.920;2024-01-07T12:10:33;5.50;99.90
17370;DHT22;8802;52.402;4.920;2024-01-07T12:13:00;5.40;99.90
17370;DHT22;8802;52.402;4.920;2024-01-07T12:15:29;5.40;99.90
17370;DHT22;8802;52.402;4.920;2024-01-07T12:17:57;5.40;99.90
17370;DHT22;8802;52.402;4.920;2024-01-07T12:20:26;5.40;99.90
17370;DHT22;8802;52.402;4.920;2024-01-07T12:22:56;5.40;99.90
17370;DHT22;8802;52.402;4.920;2024-01-07T12:25:24;5.40;99.90
17370;DHT22;8802;52.402;4.920;2024-01-07T12:27:51;5.50;99.90
17370;DHT22;8802;52.402;4.920;2024-01-07T12:30:20;5.50;99.90
17370;DHT22;8802;52.402;4.920;2024-01-07T12:32:47;5.50;99.90
17370;DHT22;8802;52.402;4.920;2024-01-07T12:35:14;5.50;99.90
17370;DHT22;8802;52.402;4.920;2024-01-07T12:37:42;5.50;99.90
17370;DHT22;8802;52.402;4.920;2024-01-07T12:40:11;5.40;99.90
17370;DHT22;8802;52.402;4.920;2024-01-07T12:42:40;5.40;99.90
17370;DHT22;8802;52.402;4.920;2024-01-07T12:45:11;5.40;99.90
17370;DHT22;8802;52.402;4.920;2024-01-07T12:47:39;5.40;99.90
17370;DHT22;8802;52.402;4.920;2024-01-07T12:50:07;5.40;99.90
17370;DHT22;8802;52.402;4.920;2024-01-07T12:52:36;5.40;99.90
17370;DHT22;8802;52.402;4.920;2024-01-07T12:55:03;5.40;99.90
17370;DHT22;8802;52.402;4.920;2024-01-07T12:57:30;5.30;99.90
17370;DHT22;8802;52.402;4.920;2024-01-07T12:59:58;5.40;99.90
17370;DHT22;8802;52.402;4.920;2024-01-07T13:02:25;5.40;99.90
17370;DHT22;8802;52.402;4.920;2024-01-07T13:04:52;5.40;99.90
17370;DHT22;8802;52.402;4.920;2024-01-07T13:07:19;5.40;99.90
17370;DHT22;8802;52.402;4.920;2024-01-07T13:09:46;5.40;99.90
17370;DHT22;8802;52.402;4.920;2024-01-07T13:12:12;5.40;99.90
17370;DHT22;8802;52.402;4.920;2024-01-07T13:14:39;5.30;99.90
17370;DHT22;8802;52.402;4.920;2024-01-07T13:17:09;5.40;99.90
17370;DHT22;8802;52.402;4.920;2024-01-07T13:19:36;5.40;99.90
17370;DHT22;8802;52.402;4.920;2024-01-07T13:22:03;5.40;99.90
17370;DHT22;8802;52.402;4.920;2024-01-07T13:24:30;5.40;99.90
17370;DHT22;8802;52.402;4.920;2024-01-07T13:26:57;5.40;99.90
17370;DHT22;8802;52.402;4.920;2024-01-07T13:29:24;5.40;99.90
17370;DHT22;8802;52.402;4.920;2024-01-07T13:31:51;5.40;99.90
17370;DHT22;8802;52.402;4.920;2024-01-07T13:34:19;5.40;99.90
17370;DHT22;8802;52.402;4.920;2024-01-07T13:36:46;5.40;99.90
17370;DHT22;8802;52.402;4.920;2024-01-07T13:39:13;5.40;99.90
17370;DHT22;8802;52.402;4.920;2024-01-07T13:41:41;5.40;99.90
17370;DHT22;8802;52.402;4.920;2024-01-07T13:44:08;5.40;99.90
17370;DHT22;8802;52.402;4.920;2024-01-07T13:46:43;5.40;99.90
17370;DHT22;8802;52.402;4.920;2024-01-07T13:49:10;5.40;99.90
17370;DHT22;8802;52.402;4.920;2024-01-07T13:51:38;5.40;99.90
17370;DHT22;8802;52.402;4.920;2024-01-07T13:54:05;5.40;99.90
17370;DHT22;8802;52.402;4.920;2024-01-07T13:56:32;5.40;99.90
17370;DHT22;8802;52.402;4.920;2024-01-07T13:59:02;5.40;99.90
17370;DHT22;8802;52.402;4.920;2024-01-07T14:01:29;5.40;99.90
17370;DHT22;8802;52.402;4.920;2024-01-07T14:03:56;5.30;99.90
17370;DHT22;8802;52.402;4.920;2024-01-07T14:06:23;5.30;99.90
17370;DHT22;8802;52.402;4.920;2024-01-07T14:08:51;5.30;99.90
17370;DHT22;8802;52.402;4.920;2024-01-07T14:11:19;5.30;99.90
17370;DHT22;8802;52.402;4.920;2024-01-07T14:13:46;5.30;99.90
17370;DHT22;8802;52.402;4.920;2024-01-07T14:16:13;5.20;99.90
17370;DHT22;8802;52.402;4.920;2024-01-07T14:18:40;5.20;99.90
17370;DHT22;8802;52.402;4.920;2024-01-07T14:21:07;5.20;99.90
17370;DHT22;8802;52.402;4.920;2024-01-07T14:23:35;5.20;99.90
17370;DHT22;8802;52.402;4.920;2024-01-07T14:26:03;5.20;99.90
17370;DHT22;8802;52.402;4.920;2024-01-07T14:28:30;5.20;99.90
17370;DHT22;8802;52.402;4.920;2024-01-07T14:30:57;5.10;99.90
17370;DHT22;8802;52.402;4.920;2024-01-07T14:33:24;5.10;99.90
17370;DHT22;8802;52.402;4.920;2024-01-07T14:35:51;5.10;99.90
17370;DHT22;8802;52.402;4.920;2024-01-07T14:38:18;5.10;99.90
17370;DHT22;8802;52.402;4.920;2024-01-07T14:40:45;5.00;99.90
17370;DHT22;8802;52.402;4.920;2024-01-07T14:43:13;5.00;99.90
17370;DHT22;8802;52.402;4.920;2024-01-07T14:45:40;5.00;99.90
17370;DHT22;8802;52.402;4.920;2024-01-07T14:48:08;5.00;99.90
17370;DHT22;8802;52.402;4.920;2024-01-07T14:50:35;5.00;99.90
17370;DHT22;8802;52.402;4.920;2024-01-07T14:53:02;5.00;99.90
17370;DHT22;8802;52.402;4.920;2024-01-07T14:55:29;4.90;99.90
17370;DHT22;8802;52.402;4.920;2024-01-07T14:57:56;4.90;99.90
17370;DHT22;8802;52.402;4.920;2024-01-07T15:00:24;4.90;99.90
17370;DHT22;8802;52.402;4.920;2024-01-07T15:02:51;4.90;99.90
17370;DHT22;8802;52.402;4.920;2024-01-07T15:05:17;4.80;99.90
17370;DHT22;8802;52.402;4.920;2024-01-07T15:07:44;4.80;99.90
17370;DHT22;8802;52.402;4.920;2024-01-07T15:10:16;4.80;99.90
17370;DHT22;8802;52.402;4.920;2024-01-07T15:12:43;4.80;99.90
17370;DHT22;8802;52.402;4.920;2024-01-07T15:15:10;4.80;99.90
17370;DHT22;8802;52.402;4.920;2024-01-07T15:17:53;4.80;99.90
17370;DHT22;8802;52.402;4.920;2024-01-07T15:20:20;4.80;99.90
17370;DHT22;8802;52.402;4.920;2024-01-07T15:22:46;4.80;99.90
17370;DHT22;8802;52.402;4.920;2024-01-07T15:25:14;4.80;99.90
17370;DHT22;8802;52.402;4.920;2024-01-07T15:27:41;4.80;99.90
17370;DHT22;8802;52.402;4.920;2024-01-07T15:30:09;4.80;99.90
17370;DHT22;8802;52.402;4.920;2024-01-07T15:32:36;4.80;99.90
17370;DHT22;8802;52.402;4.920;2024-01-07T15:35:05;4.80;99.90
17370;DHT22;8802;52.402;4.920;2024-01-07T15:37:32;4.80;99.90
17370;DHT22;8802;52.402;4.920;2024-01-07T15:39:59;4.80;99.90
17370;DHT22;8802;52.402;4.920;2024-01-07T15:42:26;4.80;99.90
17370;DHT22;8802;52.402;4.920;2024-01-07T15:44:53;4.80;99.90
17370;DHT22;8802;52.402;4.920;2024-01-07T15:47:20;4.80;99.90
17370;DHT22;8802;52.402;4.920;2024-01-07T15:49:48;4.80;99.90
17370;DHT22;8802;52.402;4.920;2024-01-07T15:52:17;4.80;99.90
17370;DHT22;8802;52.402;4.920;2024-01-07T15:54:43;4.80;99.90
17370;DHT22;8802;52.402;4.920;2024-01-07T15:57:10;4.80;99.90
17370;DHT22;8802;52.402;4.920;2024-01-07T15:59:40;4.80;99.90
17370;DHT22;8802;52.402;4.920;2024-01-07T16:02:07;4.80;99.90
17370;DHT22;8802;52.402;4.920;2024-01-07T16:04:34;4.80;99.90
17370;DHT22;8802;52.402;4.920;2024-01-07T16:07:01;4.80;99.90
17370;DHT22;8802;52.402;4.920;2024-01-07T16:09:29;4.80;99.90